createdAt,value
2022-08-05T00:04:55.561Z,29.58
2022-08-05T00:09:56.422Z,29.55
2022-08-05T00:14:55.312Z,29.48
2022-08-05T00:20:02.472Z,29.46
2022-08-05T00:25:03.409Z,29.42
2022-08-05T00:30:11.495Z,29.36
2022-08-05T00:35:10.951Z,29.32
2022-08-05T00:40:12.617Z,29.29
2022-08-05T00:45:13.562Z,29.24
2022-08-05T00:50:12.425Z,29.08
2022-08-05T00:55:13.863Z,29.10
2022-08-05T01:00:16.936Z,28.99
2022-08-05T01:05:15.962Z,28.92
2022-08-05T01:10:19.702Z,28.86
2022-08-05T01:15:36.166Z,28.84
2022-08-05T01:20:42.512Z,28.84
2022-08-05T01:26:02.294Z,28.80
2022-08-05T01:31:05.943Z,28.76
2022-08-05T01:36:13.135Z,28.60
2022-08-05T01:41:18.180Z,28.47
2022-08-05T01:46:42.119Z,28.47
2022-08-05T01:51:43.895Z,28.47
2022-08-05T01:58:12.973Z,28.48
2022-08-05T02:02:15.998Z,28.42
2022-08-05T02:07:21.856Z,28.37
2022-08-05T02:12:29.015Z,28.26
2022-08-05T02:18:32.173Z,28.17
2022-08-05T02:23:02.534Z,28.11
2022-08-05T02:28:08.797Z,28.10
2022-08-05T02:33:11.491Z,28.07
2022-08-05T02:38:19.333Z,28.05
2022-08-05T02:43:20.937Z,28.01
2022-08-05T02:48:29.569Z,27.98
2022-08-05T02:53:38.961Z,27.94
2022-08-05T02:58:43.745Z,27.91
2022-08-05T03:04:08.847Z,27.88
2022-08-05T03:09:04.275Z,27.82
2022-08-05T03:14:04.245Z,27.81
2022-08-05T03:19:17.080Z,27.79
2022-08-05T03:24:29.657Z,27.72
2022-08-05T03:29:45.808Z,27.68
2022-08-05T03:34:54.146Z,27.56
2022-08-05T03:40:01.691Z,27.42
2022-08-05T03:45:22.144Z,27.37
2022-08-05T03:50:23.598Z,27.30
2022-08-05T03:56:04.209Z,27.25
2022-08-05T04:00:54.470Z,27.23
2022-08-05T04:05:55.673Z,27.22
2022-08-05T04:10:57.649Z,27.26
2022-08-05T04:16:04.412Z,27.28
2022-08-05T04:21:07.013Z,27.27
2022-08-05T04:26:10.355Z,27.18
2022-08-05T04:31:15.247Z,27.20
2022-08-05T04:36:49.431Z,27.24
2022-08-05T04:41:37.621Z,27.18
2022-08-05T04:46:37.778Z,27.25
2022-08-05T04:51:38.587Z,27.32
2022-08-05T04:56:37.909Z,27.37
2022-08-05T05:02:08.118Z,27.33
2022-08-05T05:06:57.642Z,27.24
2022-08-05T05:12:01.708Z,27.31
2022-08-05T05:17:03.318Z,27.39
2022-08-05T05:22:22.645Z,27.52
2022-08-05T05:27:23.392Z,27.59
2022-08-05T05:32:22.534Z,27.66
2022-08-05T05:37:23.167Z,27.75
2022-08-05T05:42:36.167Z,27.87
2022-08-05T05:48:06.292Z,27.92
2022-08-05T05:52:56.492Z,27.97
2022-08-05T05:57:56.278Z,28.11
2022-08-05T06:03:02.434Z,28.24
2022-08-05T06:08:03.969Z,28.27
2022-08-05T06:13:02.878Z,28.36
2022-08-05T06:18:01.934Z,28.42
2022-08-05T06:23:02.106Z,28.44
2022-08-05T06:28:12.583Z,28.53
2022-08-05T06:33:20.555Z,28.64
2022-08-05T06:38:47.025Z,28.78
2022-08-05T06:43:59.303Z,28.87
2022-08-05T06:49:01.149Z,28.97
2022-08-05T06:54:03.484Z,29.11
2022-08-05T06:59:02.377Z,29.13
2022-08-05T07:04:03.008Z,29.29
2022-08-05T07:09:04.204Z,29.51
2022-08-05T07:14:29.345Z,29.49
2022-08-05T07:24:57.955Z,29.76
2022-08-05T07:30:27.399Z,29.77
2022-08-05T07:36:02.249Z,29.86
2022-08-05T07:40:44.601Z,30.04
2022-08-05T07:45:58.118Z,30.16
2022-08-05T07:50:57.592Z,30.13
2022-08-05T07:57:01.412Z,30.42
2022-08-05T08:01:52.147Z,30.55
2022-08-05T08:06:59.196Z,30.74
2022-08-05T08:12:05.607Z,30.76
2022-08-05T08:17:11.557Z,30.97
2022-08-05T08:22:15.859Z,31.28
2022-08-05T08:27:17.114Z,31.20
2022-08-05T08:32:18.656Z,31.47
2022-08-05T08:37:27.968Z,31.59
2022-08-05T08:42:34.585Z,31.94
2022-08-05T08:48:11.865Z,32.61
2022-08-05T08:53:18.131Z,33.61
2022-08-05T08:58:25.996Z,34.37
2022-08-05T09:03:25.950Z,35.56
2022-08-05T09:08:40.250Z,36.55
2022-08-05T09:14:00.864Z,37.39
2022-08-05T09:19:00.315Z,38.51
2022-08-05T09:24:08.802Z,39.57
2022-08-05T09:29:10.682Z,40.41
2022-08-05T09:34:19.450Z,40.76
2022-08-05T09:39:23.233Z,41.09
2022-08-05T09:44:37.113Z,42.15
2022-08-05T09:49:54.661Z,42.48
2022-08-05T09:55:55.239Z,42.63
2022-08-05T10:00:26.030Z,42.87
2022-08-05T10:05:27.538Z,44.15
2022-08-05T10:11:44.890Z,45.14
2022-08-05T10:17:03.560Z,44.68
2022-08-05T10:22:29.774Z,45.20
2022-08-05T10:28:13.411Z,46.26
2022-08-05T10:33:14.658Z,46.69
2022-08-05T10:38:15.874Z,46.69
2022-08-05T10:43:37.290Z,46.43
2022-08-05T10:49:01.485Z,46.31
2022-08-05T10:54:29.860Z,46.55
2022-08-05T11:00:04.323Z,47.30
2022-08-05T11:04:57.124Z,47.13
2022-08-05T11:10:03.951Z,47.02
2022-08-05T11:15:19.857Z,47.39
2022-08-05T11:20:58.022Z,47.94
2022-08-05T11:26:09.004Z,47.32
2022-08-05T11:31:56.969Z,47.78
2022-08-05T11:38:28.421Z,47.72
2022-08-05T11:44:04.762Z,47.54
2022-08-05T11:48:57.023Z,48.30
2022-08-05T11:54:40.728Z,48.81
2022-08-05T12:00:38.985Z,49.44
2022-08-05T12:05:45.293Z,49.24
2022-08-05T12:10:47.205Z,47.94
2022-08-05T12:16:58.152Z,45.23
2022-08-05T12:27:54.831Z,46.22
2022-08-05T12:32:56.321Z,47.26
2022-08-05T12:37:56.086Z,48.08
2022-08-05T12:42:57.089Z,48.09
2022-08-05T12:48:01.277Z,48.32
2022-08-05T12:53:17.927Z,48.45
2022-08-05T12:58:52.570Z,48.70
2022-08-05T13:03:48.674Z,48.50
2022-08-05T13:08:52.443Z,47.39
2022-08-05T13:14:06.008Z,47.15
2022-08-05T13:19:05.686Z,46.48
2022-08-05T13:24:05.636Z,45.68
2022-08-05T13:29:06.511Z,45.15
2022-08-05T13:34:21.944Z,44.65
2022-08-05T13:40:16.647Z,43.86
2022-08-05T13:44:46.403Z,43.44
2022-08-05T13:49:46.567Z,43.43
2022-08-05T13:54:53.500Z,43.08
2022-08-05T13:59:55.512Z,43.44
2022-08-05T14:05:15.417Z,43.61
2022-08-05T14:10:31.093Z,44.53
2022-08-05T14:16:05.260Z,45.40
2022-08-05T14:20:54.300Z,45.80
2022-08-05T14:25:54.556Z,46.64
2022-08-05T14:30:58.405Z,47.75
2022-08-05T14:35:57.208Z,48.61
2022-08-05T14:40:57.314Z,48.28
2022-08-05T14:45:56.053Z,48.81
2022-08-05T14:50:56.537Z,49.24
2022-08-05T14:55:55.293Z,49.77
2022-08-05T15:00:59.226Z,50.16
2022-08-05T15:06:07.739Z,50.08
2022-08-05T15:11:14.059Z,50.19
2022-08-05T15:16:26.221Z,49.80
2022-08-05T15:21:26.709Z,50.05
2022-08-05T15:26:32.113Z,50.35
2022-08-05T15:31:34.738Z,50.02
2022-08-05T15:36:35.392Z,49.19
2022-08-05T15:41:56.230Z,48.39
2022-08-05T15:46:53.030Z,47.66
2022-08-05T15:52:03.924Z,46.80
2022-08-05T15:57:13.092Z,46.06
2022-08-05T16:02:14.452Z,45.25
2022-08-05T16:07:21.408Z,44.41
2022-08-05T16:12:21.834Z,43.84
2022-08-05T16:17:20.681Z,43.44
2022-08-05T16:22:27.391Z,43.13
2022-08-05T16:27:32.356Z,42.81
2022-08-05T16:32:46.079Z,42.46
2022-08-05T16:38:03.420Z,42.19
2022-08-05T16:43:05.785Z,41.65
2022-08-05T16:48:06.256Z,41.45
2022-08-05T16:53:12.250Z,41.12
2022-08-05T16:58:21.573Z,40.70
2022-08-05T17:03:24.278Z,40.26
2022-08-05T17:08:36.423Z,39.84
2022-08-05T17:13:43.223Z,39.46
2022-08-05T17:18:42.610Z,39.16
2022-08-05T17:24:03.079Z,38.90
2022-08-05T17:29:09.890Z,38.55
2022-08-05T17:34:09.201Z,38.27
2022-08-05T17:39:24.528Z,37.97
2022-08-05T17:44:32.453Z,37.68
2022-08-05T17:50:00.002Z,37.41
2022-08-05T17:54:51.825Z,37.01
2022-08-05T18:00:03.092Z,36.75
2022-08-05T18:05:06.990Z,36.45
2022-08-05T18:10:10.306Z,36.13
2022-08-05T18:15:10.907Z,35.86
2022-08-05T18:20:14.897Z,35.57
2022-08-05T18:25:16.943Z,35.22
2022-08-05T18:30:15.998Z,35.05
2022-08-05T18:35:16.344Z,34.79
2022-08-05T18:40:34.030Z,34.72
2022-08-05T18:45:41.732Z,34.39
2022-08-05T18:51:01.636Z,34.14
2022-08-05T18:56:21.719Z,34.00
2022-08-05T19:01:33.371Z,33.79
2022-08-05T19:06:45.164Z,33.65
2022-08-05T19:12:00.986Z,33.49
2022-08-05T19:17:00.306Z,33.22
2022-08-05T19:21:59.134Z,33.24
2022-08-05T19:26:59.363Z,33.17
2022-08-05T19:32:03.147Z,33.02
2022-08-05T19:37:03.109Z,32.88
2022-08-05T19:42:07.143Z,32.90
2022-08-05T19:47:07.925Z,32.74
2022-08-05T19:52:31.542Z,32.63
2022-08-05T19:57:47.486Z,32.51
2022-08-05T20:02:47.814Z,32.41
2022-08-05T20:07:49.057Z,32.39
2022-08-05T20:12:49.602Z,32.39
2022-08-05T20:17:48.934Z,32.38
2022-08-05T20:22:49.348Z,32.35
2022-08-05T20:27:49.642Z,32.28
2022-08-05T20:32:48.859Z,32.19
2022-08-05T20:38:06.291Z,32.20
2022-08-05T20:43:07.762Z,32.25
2022-08-05T20:48:07.314Z,32.27
2022-08-05T20:53:07.241Z,32.18
2022-08-05T20:58:16.547Z,32.14
2022-08-05T21:03:16.749Z,31.96
2022-08-05T21:08:19.482Z,31.85
2022-08-05T21:13:26.430Z,31.68
2022-08-05T21:18:38.596Z,31.49
2022-08-05T21:23:43.956Z,31.46
2022-08-05T21:28:50.885Z,31.33
2022-08-05T21:33:49.856Z,31.37
2022-08-05T21:38:48.678Z,31.36
2022-08-05T21:44:01.683Z,31.34
2022-08-05T21:49:07.115Z,31.31
2022-08-05T21:54:06.271Z,31.35
2022-08-05T21:59:22.494Z,31.48
2022-08-05T22:04:25.340Z,31.51
2022-08-05T22:09:24.441Z,31.42
2022-08-05T22:14:44.664Z,31.45
2022-08-05T22:20:00.104Z,31.43
2022-08-05T22:25:27.268Z,31.44
2022-08-05T22:30:35.144Z,31.40
2022-08-05T22:35:47.999Z,31.36
2022-08-05T22:40:49.336Z,31.31
2022-08-05T22:45:50.363Z,31.22
2022-08-05T22:50:56.251Z,31.05
2022-08-05T22:55:56.581Z,30.97
2022-08-05T23:00:57.683Z,30.94
2022-08-05T23:05:56.915Z,30.86
2022-08-05T23:10:57.106Z,30.77
2022-08-05T23:15:58.068Z,30.65
2022-08-05T23:20:57.177Z,30.62
2022-08-05T23:25:57.118Z,30.58
2022-08-05T23:30:57.155Z,30.54
2022-08-05T23:36:15.473Z,30.50
2022-08-05T23:41:14.335Z,30.49
2022-08-05T23:46:20.003Z,30.45
2022-08-05T23:51:20.696Z,30.38
2022-08-05T23:56:27.194Z,30.32
